sensor_id;sensor_type;location;lat;lon;timestamp;temperature;humidity
64874;HTU21D;51367;45.204;38.576;2023-02-15T00:02:10;1.53;83.05
64874;HTU21D;51367;45.204;38.576;2023-02-15T00:04:36;1.52;83.06
64874;HTU21D;51367;45.204;38.576;2023-02-15T00:07:15;1.51;83.06
64874;HTU21D;51367;45.204;38.576;2023-02-15T00:09:41;1.50;83.06
64874;HTU21D;51367;45.204;38.576;2023-02-15T00:12:09;1.47;83.07
64874;HTU21D;51367;45.204;38.576;2023-02-15T00:14:35;1.47;83.10
64874;HTU21D;51367;45.204;38.576;2023-02-15T00:17:01;1.46;83.12
64874;HTU21D;51367;45.204;38.576;2023-02-15T00:19:27;1.45;83.14
64874;HTU21D;51367;45.204;38.576;2023-02-15T00:21:53;1.45;83.15
64874;HTU21D;51367;45.204;38.576;2023-02-15T00:24:19;1.42;83.16
64874;HTU21D;51367;45.204;38.576;2023-02-15T00:26:46;1.43;83.17
64874;HTU21D;51367;45.204;38.576;2023-02-15T00:29:14;1.43;83.18
64874;HTU21D;51367;45.204;38.576;2023-02-15T00:31:41;1.42;83.20
64874;HTU21D;51367;45.204;38.576;2023-02-15T00:34:12;1.43;83.20
64874;HTU21D;51367;45.204;38.576;2023-02-15T00:36:39;1.43;83.19
64874;HTU21D;51367;45.204;38.576;2023-02-15T00:39:06;1.42;83.18
64874;HTU21D;51367;45.204;38.576;2023-02-15T00:41:32;1.41;83.17
64874;HTU21D;51367;45.204;38.576;2023-02-15T00:43:58;1.40;83.18
64874;HTU21D;51367;45.204;38.576;2023-02-15T00:46:24;1.40;83.19
64874;HTU21D;51367;45.204;38.576;2023-02-15T00:48:50;1.39;83.19
64874;HTU21D;51367;45.204;38.576;2023-02-15T00:51:16;1.39;83.20
64874;HTU21D;51367;45.204;38.576;2023-02-15T00:53:47;1.37;83.22
64874;HTU21D;51367;45.204;38.576;2023-02-15T00:56:13;1.36;83.23
64874;HTU21D;51367;45.204;38.576;2023-02-15T00:58:39;1.35;83.26
64874;HTU21D;51367;45.204;38.576;2023-02-15T01:01:11;1.35;83.28
64874;HTU21D;51367;45.204;38.576;2023-02-15T01:03:38;1.33;83.27
64874;HTU21D;51367;45.204;38.576;2023-02-15T01:06:04;1.33;83.29
64874;HTU21D;51367;45.204;38.576;2023-02-15T01:08:30;1.32;83.31
64874;HTU21D;51367;45.204;38.576;2023-02-15T01:10:56;1.31;83.32
64874;HTU21D;51367;45.204;38.576;2023-02-15T01:13:23;1.32;83.31
64874;HTU21D;51367;45.204;38.576;2023-02-15T01:15:53;1.31;83.32
64874;HTU21D;51367;45.204;38.576;2023-02-15T01:18:20;1.29;83.31
64874;HTU21D;51367;45.204;38.576;2023-02-15T01:20:48;1.28;83.30
64874;HTU21D;51367;45.204;38.576;2023-02-15T01:23:14;1.26;83.29
64874;HTU21D;51367;45.204;38.576;2023-02-15T01:25:41;1.24;83.27
64874;HTU21D;51367;45.204;38.576;2023-02-15T01:28:09;1.22;83.27
64874;HTU21D;51367;45.204;38.576;2023-02-15T01:30:35;1.19;83.24
64874;HTU21D;51367;45.204;38.576;2023-02-15T01:33:01;1.17;83.25
64874;HTU21D;51367;45.204;38.576;2023-02-15T01:35:30;1.13;83.24
64874;HTU21D;51367;45.204;38.576;2023-02-15T01:37:56;1.08;83.27
64874;HTU21D;51367;45.204;38.576;2023-02-15T01:40:24;1.05;83.29
64874;HTU21D;51367;45.204;38.576;2023-02-15T01:42:52;1.02;83.29
64874;HTU21D;51367;45.204;38.576;2023-02-15T01:45:29;0.95;83.37
64874;HTU21D;51367;45.204;38.576;2023-02-15T01:48:04;0.88;83.42
64874;HTU21D;51367;45.204;38.576;2023-02-15T01:50:39;0.78;83.44
64874;HTU21D;51367;45.204;38.576;2023-02-15T01:55:52;0.67;83.64
64874;HTU21D;51367;45.204;38.576;2023-02-15T01:58:21;0.64;83.71
64874;HTU21D;51367;45.204;38.576;2023-02-15T02:00:48;0.63;83.72
64874;HTU21D;51367;45.204;38.576;2023-02-15T02:03:14;0.63;83.72
64874;HTU21D;51367;45.204;38.576;2023-02-15T02:05:41;0.63;83.73
64874;HTU21D;51367;45.204;38.576;2023-02-15T02:08:07;0.65;83.72
64874;HTU21D;51367;45.204;38.576;2023-02-15T02:10:35;0.64;83.71
64874;HTU21D;51367;45.204;38.576;2023-02-15T02:13:05;0.65;83.71
64874;HTU21D;51367;45.204;38.576;2023-02-15T02:15:52;0.66;83.73
64874;HTU21D;51367;45.204;38.576;2023-02-15T02:18:27;0.71;83.73
64874;HTU21D;51367;45.204;38.576;2023-02-15T02:27:27;0.79;83.65
64874;HTU21D;51367;45.204;38.576;2023-02-15T02:35:19;0.86;83.62
64874;HTU21D;51367;45.204;38.576;2023-02-15T02:43:38;0.93;83.67
64874;HTU21D;51367;45.204;38.576;2023-02-15T02:46:10;0.96;83.65
64874;HTU21D;51367;45.204;38.576;2023-02-15T02:48:38;1.01;83.65
64874;HTU21D;51367;45.204;38.576;2023-02-15T02:51:04;1.06;83.65
64874;HTU21D;51367;45.204;38.576;2023-02-15T02:53:31;1.08;83.64
64874;HTU21D;51367;45.204;38.576;2023-02-15T02:58:48;1.14;83.58
64874;HTU21D;51367;45.204;38.576;2023-02-15T03:01:24;1.20;83.59
64874;HTU21D;51367;45.204;38.576;2023-02-15T03:04:07;1.23;83.57
64874;HTU21D;51367;45.204;38.576;2023-02-15T03:09:11;1.25;83.48
64874;HTU21D;51367;45.204;38.576;2023-02-15T03:11:47;1.28;83.46
64874;HTU21D;51367;45.204;38.576;2023-02-15T03:14:16;1.27;83.46
64874;HTU21D;51367;45.204;38.576;2023-02-15T03:16:44;1.29;83.49
64874;HTU21D;51367;45.204;38.576;2023-02-15T03:19:16;1.31;83.49
64874;HTU21D;51367;45.204;38.576;2023-02-15T03:22:05;1.29;83.55
64874;HTU21D;51367;45.204;38.576;2023-02-15T03:24:54;1.32;83.58
64874;HTU21D;51367;45.204;38.576;2023-02-15T03:27:25;1.32;83.58
64874;HTU21D;51367;45.204;38.576;2023-02-15T03:29:56;1.34;83.61
64874;HTU21D;51367;45.204;38.576;2023-02-15T03:32:26;1.35;83.63
64874;HTU21D;51367;45.204;38.576;2023-02-15T03:34:54;1.37;83.64
64874;HTU21D;51367;45.204;38.576;2023-02-15T03:38:28;1.37;83.63
64874;HTU21D;51367;45.204;38.576;2023-02-15T03:45:47;1.36;83.71
64874;HTU21D;51367;45.204;38.576;2023-02-15T03:48:41;1.37;83.75
64874;HTU21D;51367;45.204;38.576;2023-02-15T03:51:14;1.39;83.78
64874;HTU21D;51367;45.204;38.576;2023-02-15T03:56:37;1.42;83.77
64874;HTU21D;51367;45.204;38.576;2023-02-15T03:59:04;1.43;83.76
64874;HTU21D;51367;45.204;38.576;2023-02-15T04:02:38;1.46;83.74
64874;HTU21D;51367;45.204;38.576;2023-02-15T04:04:40;1.46;83.70
64874;HTU21D;51367;45.204;38.576;2023-02-15T04:07:08;1.46;83.71
64874;HTU21D;51367;45.204;38.576;2023-02-15T04:09:35;1.47;83.71
64874;HTU21D;51367;45.204;38.576;2023-02-15T04:12:20;1.48;83.73
64874;HTU21D;51367;45.204;38.576;2023-02-15T04:14:46;1.48;83.69
64874;HTU21D;51367;45.204;38.576;2023-02-15T04:17:30;1.43;83.65
64874;HTU21D;51367;45.204;38.576;2023-02-15T04:19:56;1.39;83.66
64874;HTU21D;51367;45.204;38.576;2023-02-15T04:22:40;1.36;83.71
64874;HTU21D;51367;45.204;38.576;2023-02-15T04:25:25;1.33;83.71
64874;HTU21D;51367;45.204;38.576;2023-02-15T04:27:53;1.28;83.74
64874;HTU21D;51367;45.204;38.576;2023-02-15T04:30:22;1.28;83.78
64874;HTU21D;51367;45.204;38.576;2023-02-15T04:32:49;1.27;83.76
64874;HTU21D;51367;45.204;38.576;2023-02-15T04:35:16;1.24;83.78
64874;HTU21D;51367;45.204;38.576;2023-02-15T04:37:43;1.23;83.81
64874;HTU21D;51367;45.204;38.576;2023-02-15T04:40:12;1.19;83.83
64874;HTU21D;51367;45.204;38.576;2023-02-15T04:42:38;1.19;83.87
64874;HTU21D;51367;45.204;38.576;2023-02-15T04:45:05;1.19;83.87
64874;HTU21D;51367;45.204;38.576;2023-02-15T04:47:31;1.20;83.94
64874;HTU21D;51367;45.204;38.576;2023-02-15T04:49:57;1.19;83.96
64874;HTU21D;51367;45.204;38.576;2023-02-15T04:52:23;1.19;83.99
64874;HTU21D;51367;45.204;38.576;2023-02-15T04:54:49;1.16;84.01
64874;HTU21D;51367;45.204;38.576;2023-02-15T04:57:15;1.14;84.33
64874;HTU21D;51367;45.204;38.576;2023-02-15T04:59:41;1.10;84.31
64874;HTU21D;51367;45.204;38.576;2023-02-15T05:02:07;1.08;84.49
64874;HTU21D;51367;45.204;38.576;2023-02-15T05:04:33;1.04;84.65
64874;HTU21D;51367;45.204;38.576;2023-02-15T05:06:58;0.99;84.90
64874;HTU21D;51367;45.204;38.576;2023-02-15T05:09:24;0.98;85.27
64874;HTU21D;51367;45.204;38.576;2023-02-15T05:11:50;0.97;85.35
64874;HTU21D;51367;45.204;38.576;2023-02-15T05:14:16;0.97;85.70
64874;HTU21D;51367;45.204;38.576;2023-02-15T05:16:42;0.98;85.45
64874;HTU21D;51367;45.204;38.576;2023-02-15T05:19:08;0.99;85.45
64874;HTU21D;51367;45.204;38.576;2023-02-15T05:21:34;1.01;85.57
64874;HTU21D;51367;45.204;38.576;2023-02-15T05:24:00;1.08;85.65
64874;HTU21D;51367;45.204;38.576;2023-02-15T05:26:46;1.11;85.84
64874;HTU21D;51367;45.204;38.576;2023-02-15T05:29:30;1.17;85.89
64874;HTU21D;51367;45.204;38.576;2023-02-15T05:31:56;1.18;85.84
64874;HTU21D;51367;45.204;38.576;2023-02-15T05:34:22;1.17;86.48
64874;HTU21D;51367;45.204;38.576;2023-02-15T05:36:48;1.12;86.60
64874;HTU21D;51367;45.204;38.576;2023-02-15T05:39:14;1.09;87.11
64874;HTU21D;51367;45.204;38.576;2023-02-15T05:41:40;1.07;86.77
64874;HTU21D;51367;45.204;38.576;2023-02-15T05:44:06;1.08;86.51
64874;HTU21D;51367;45.204;38.576;2023-02-15T05:46:32;1.10;86.66
64874;HTU21D;51367;45.204;38.576;2023-02-15T05:48:57;1.11;86.77
64874;HTU21D;51367;45.204;38.576;2023-02-15T05:51:23;1.10;87.16
64874;HTU21D;51367;45.204;38.576;2023-02-15T05:53:49;1.11;86.98
64874;HTU21D;51367;45.204;38.576;2023-02-15T05:56:15;1.16;87.03
64874;HTU21D;51367;45.204;38.576;2023-02-15T05:58:41;1.21;87.13
64874;HTU21D;51367;45.204;38.576;2023-02-15T06:01:16;1.28;86.84
64874;HTU21D;51367;45.204;38.576;2023-02-15T06:03:43;1.31;86.86
64874;HTU21D;51367;45.204;38.576;2023-02-15T06:06:09;1.33;86.78
64874;HTU21D;51367;45.204;38.576;2023-02-15T06:08:37;1.36;86.79
64874;HTU21D;51367;45.204;38.576;2023-02-15T06:11:03;1.38;86.98
64874;HTU21D;51367;45.204;38.576;2023-02-15T06:13:30;1.38;86.96
64874;HTU21D;51367;45.204;38.576;2023-02-15T06:15:56;1.40;87.07
64874;HTU21D;51367;45.204;38.576;2023-02-15T06:18:22;1.35;87.48
64874;HTU21D;51367;45.204;38.576;2023-02-15T06:20:48;1.33;87.37
64874;HTU21D;51367;45.204;38.576;2023-02-15T06:23:15;1.29;87.33
64874;HTU21D;51367;45.204;38.576;2023-02-15T06:25:41;1.29;87.64
64874;HTU21D;51367;45.204;38.576;2023-02-15T06:28:07;1.27;87.57
64874;HTU21D;51367;45.204;38.576;2023-02-15T06:30:33;1.24;87.89
64874;HTU21D;51367;45.204;38.576;2023-02-15T06:32:59;1.21;87.84
64874;HTU21D;51367;45.204;38.576;2023-02-15T06:35:25;1.20;88.04
64874;HTU21D;51367;45.204;38.576;2023-02-15T06:37:51;1.20;88.08
64874;HTU21D;51367;45.204;38.576;2023-02-15T06:40:17;1.21;88.21
64874;HTU21D;51367;45.204;38.576;2023-02-15T06:42:43;1.21;88.26
64874;HTU21D;51367;45.204;38.576;2023-02-15T06:45:09;1.20;88.40
64874;HTU21D;51367;45.204;38.576;2023-02-15T06:47:36;1.22;88.74
64874;HTU21D;51367;45.204;38.576;2023-02-15T06:50:04;1.21;88.60
64874;HTU21D;51367;45.204;38.576;2023-02-15T06:52:29;1.22;88.98
64874;HTU21D;51367;45.204;38.576;2023-02-15T06:54:55;1.24;88.75
64874;HTU21D;51367;45.204;38.576;2023-02-15T06:57:21;1.26;88.74
64874;HTU21D;51367;45.204;38.576;2023-02-15T06:59:47;1.26;88.74
64874;HTU21D;51367;45.204;38.576;2023-02-15T07:02:13;1.26;88.73
64874;HTU21D;51367;45.204;38.576;2023-02-15T07:04:39;1.24;88.83
64874;HTU21D;51367;45.204;38.576;2023-02-15T07:07:09;1.23;88.72
64874;HTU21D;51367;45.204;38.576;2023-02-15T07:09:36;1.27;88.80
64874;HTU21D;51367;45.204;38.576;2023-02-15T07:12:02;1.29;88.91
64874;HTU21D;51367;45.204;38.576;2023-02-15T07:14:47;1.34;88.79
64874;HTU21D;51367;45.204;38.576;2023-02-15T07:17:13;1.38;88.78
64874;HTU21D;51367;45.204;38.576;2023-02-15T07:19:39;1.35;88.91
64874;HTU21D;51367;45.204;38.576;2023-02-15T07:22:05;1.36;88.80
64874;HTU21D;51367;45.204;38.576;2023-02-15T07:24:31;1.40;88.70
64874;HTU21D;51367;45.204;38.576;2023-02-15T07:26:57;1.40;88.56
64874;HTU21D;51367;45.204;38.576;2023-02-15T07:29:23;1.39;88.57
64874;HTU21D;51367;45.204;38.576;2023-02-15T07:31:50;1.37;88.46
64874;HTU21D;51367;45.204;38.576;2023-02-15T07:34:16;1.35;88.39
64874;HTU21D;51367;45.204;38.576;2023-02-15T07:36:42;1.32;88.40
64874;HTU21D;51367;45.204;38.576;2023-02-15T07:39:11;1.32;88.44
64874;HTU21D;51367;45.204;38.576;2023-02-15T07:41:37;1.43;88.65
64874;HTU21D;51367;45.204;38.576;2023-02-15T07:44:13;1.57;88.80
64874;HTU21D;51367;45.204;38.576;2023-02-15T07:46:39;1.86;88.84
64874;HTU21D;51367;45.204;38.576;2023-02-15T07:49:06;2.39;89.63
64874;HTU21D;51367;45.204;38.576;2023-02-15T07:51:32;2.75;88.11
64874;HTU21D;51367;45.204;38.576;2023-02-15T07:53:58;2.94;88.12
64874;HTU21D;51367;45.204;38.576;2023-02-15T07:56:24;2.91;86.55
64874;HTU21D;51367;45.204;38.576;2023-02-15T07:58:49;2.94;87.05
64874;HTU21D;51367;45.204;38.576;2023-02-15T08:01:52;3.01;86.06
64874;HTU21D;51367;45.204;38.576;2023-02-15T08:04:11;3.14;86.93
64874;HTU21D;51367;45.204;38.576;2023-02-15T08:06:38;3.34;86.96
64874;HTU21D;51367;45.204;38.576;2023-02-15T08:09:08;3.36;84.98
64874;HTU21D;51367;45.204;38.576;2023-02-15T08:11:36;3.29;85.42
64874;HTU21D;51367;45.204;38.576;2023-02-15T08:14:04;3.19;84.42
64874;HTU21D;51367;45.204;38.576;2023-02-15T08:16:41;3.04;84.39
64874;HTU21D;51367;45.204;38.576;2023-02-15T08:19:12;2.91;84.88
64874;HTU21D;51367;45.204;38.576;2023-02-15T08:21:40;2.86;84.86
64874;HTU21D;51367;45.204;38.576;2023-02-15T08:24:08;2.96;85.60
64874;HTU21D;51367;45.204;38.576;2023-02-15T08:26:34;3.09;84.87
64874;HTU21D;51367;45.204;38.576;2023-02-15T08:29:02;3.11;84.40
64874;HTU21D;51367;45.204;38.576;2023-02-15T08:31:28;3.03;83.45
64874;HTU21D;51367;45.204;38.576;2023-02-15T08:33:55;3.02;83.65
64874;HTU21D;51367;45.204;38.576;2023-02-15T08:36:24;3.15;84.10
64874;HTU21D;51367;45.204;38.576;2023-02-15T08:38:50;3.12;83.31
64874;HTU21D;51367;45.204;38.576;2023-02-15T08:41:25;3.04;83.40
64874;HTU21D;51367;45.204;38.576;2023-02-15T08:43:53;2.95;83.16
64874;HTU21D;51367;45.204;38.576;2023-02-15T08:46:22;2.86;82.63
64874;HTU21D;51367;45.204;38.576;2023-02-15T08:48:48;2.85;83.08
64874;HTU21D;51367;45.204;38.576;2023-02-15T08:51:26;2.88;83.34
64874;HTU21D;51367;45.204;38.576;2023-02-15T08:53:55;2.96;83.32
64874;HTU21D;51367;45.204;38.576;2023-02-15T08:56:27;3.00;82.66
64874;HTU21D;51367;45.204;38.576;2023-02-15T08:58:54;3.01;82.53
64874;HTU21D;51367;45.204;38.576;2023-02-15T09:01:23;2.96;81.87
64874;HTU21D;51367;45.204;38.576;2023-02-15T09:03:51;2.99;82.18
64874;HTU21D;51367;45.204;38.576;2023-02-15T09:06:21;3.05;82.17
64874;HTU21D;51367;45.204;38.576;2023-02-15T09:08:48;3.05;81.59
64874;HTU21D;51367;45.204;38.576;2023-02-15T09:11:21;3.02;81.20
64874;HTU21D;51367;45.204;38.576;2023-02-15T09:16:20;2.98;81.47
64874;HTU21D;51367;45.204;38.576;2023-02-15T09:18:46;2.91;80.69
64874;HTU21D;51367;45.204;38.576;2023-02-15T09:21:16;2.89;81.27
64874;HTU21D;51367;45.204;38.576;2023-02-15T09:23:43;3.02;81.46
64874;HTU21D;51367;45.204;38.576;2023-02-15T09:26:15;3.26;81.81
64874;HTU21D;51367;45.204;38.576;2023-02-15T09:28:43;3.61;81.83
64874;HTU21D;51367;45.204;38.576;2023-02-15T09:31:17;4.00;81.58
64874;HTU21D;51367;45.204;38.576;2023-02-15T09:33:45;4.14;79.67
64874;HTU21D;51367;45.204;38.576;2023-02-15T09:36:17;4.10;78.50
64874;HTU21D;51367;45.204;38.576;2023-02-15T09:38:56;4.06;78.77
64874;HTU21D;51367;45.204;38.576;2023-02-15T10:10:05;4.12;76.30
64874;HTU21D;51367;45.204;38.576;2023-02-15T10:12:47;4.12;76.39
64874;HTU21D;51367;45.204;38.576;2023-02-15T10:18:35;4.31;77.19
64874;HTU21D;51367;45.204;38.576;2023-02-15T10:26:46;4.54;74.27
64874;HTU21D;51367;45.204;38.576;2023-02-15T10:31:50;4.12;73.31
64874;HTU21D;51367;45.204;38.576;2023-02-15T10:34:23;3.93;74.74
64874;HTU21D;51367;45.204;38.576;2023-02-15T10:43:07;3.67;75.10
64874;HTU21D;51367;45.204;38.576;2023-02-15T10:51:00;3.49;76.38
64874;HTU21D;51367;45.204;38.576;2023-02-15T10:56:19;3.58;76.57
64874;HTU21D;51367;45.204;38.576;2023-02-15T10:58:51;3.58;76.74
64874;HTU21D;51367;45.204;38.576;2023-02-15T11:01:34;3.56;76.31
64874;HTU21D;51367;45.204;38.576;2023-02-15T11:04:05;3.52;76.36
64874;HTU21D;51367;45.204;38.576;2023-02-15T11:06:39;3.46;76.48
64874;HTU21D;51367;45.204;38.576;2023-02-15T11:09:13;3.41;76.75
64874;HTU21D;51367;45.204;38.576;2023-02-15T11:11:42;3.41;76.57
64874;HTU21D;51367;45.204;38.576;2023-02-15T11:14:17;3.40;76.64
64874;HTU21D;51367;45.204;38.576;2023-02-15T11:16:52;3.43;76.57
64874;HTU21D;51367;45.204;38.576;2023-02-15T11:19:39;3.38;76.47
64874;HTU21D;51367;45.204;38.576;2023-02-15T11:22:09;3.33;76.35
64874;HTU21D;51367;45.204;38.576;2023-02-15T11:24:42;3.30;76.21
64874;HTU21D;51367;45.204;38.576;2023-02-15T11:30:12;3.38;76.86
64874;HTU21D;51367;45.204;38.576;2023-02-15T11:32:42;3.48;76.76
64874;HTU21D;51367;45.204;38.576;2023-02-15T11:40:59;3.38;76.64
64874;HTU21D;51367;45.204;38.576;2023-02-15T11:46:04;3.10;77.53
64874;HTU21D;51367;45.204;38.576;2023-02-15T11:48:31;2.96;77.98
64874;HTU21D;51367;45.204;38.576;2023-02-15T11:50:58;2.85;78.75
64874;HTU21D;51367;45.204;38.576;2023-02-15T11:53:26;2.75;79.11
64874;HTU21D;51367;45.204;38.576;2023-02-15T11:55:55;2.67;79.32
64874;HTU21D;51367;45.204;38.576;2023-02-15T11:58:37;2.54;79.50
64874;HTU21D;51367;45.204;38.576;2023-02-15T12:01:36;2.47;79.72
64874;HTU21D;51367;45.204;38.576;2023-02-15T12:07:09;2.44;80.17
64874;HTU21D;51367;45.204;38.576;2023-02-15T12:12:31;2.45;80.17
64874;HTU21D;51367;45.204;38.576;2023-02-15T12:15:09;2.43;80.24
64874;HTU21D;51367;45.204;38.576;2023-02-15T12:17:49;2.40;80.14
64874;HTU21D;51367;45.204;38.576;2023-02-15T12:23:03;2.35;80.30
64874;HTU21D;51367;45.204;38.576;2023-02-15T12:25:36;2.35;80.39
64874;HTU21D;51367;45.204;38.576;2023-02-15T12:28:04;2.36;80.32
64874;HTU21D;51367;45.204;38.576;2023-02-15T12:30:42;2.36;80.26
64874;HTU21D;51367;45.204;38.576;2023-02-15T12:33:45;2.40;80.17
64874;HTU21D;51367;45.204;38.576;2023-02-15T12:36:22;2.39;79.98
64874;HTU21D;51367;45.204;38.576;2023-02-15T12:41:38;2.26;80.12
64874;HTU21D;51367;45.204;38.576;2023-02-15T12:44:20;2.17;80.30
64874;HTU21D;51367;45.204;38.576;2023-02-15T12:49:32;2.10;80.58
64874;HTU21D;51367;45.204;38.576;2023-02-15T12:52:01;2.11;80.66
64874;HTU21D;51367;45.204;38.576;2023-02-15T12:54:42;2.14;80.62
64874;HTU21D;51367;45.204;38.576;2023-02-15T12:57:31;2.14;80.71
64874;HTU21D;51367;45.204;38.576;2023-02-15T13:02:49;2.11;80.62
64874;HTU21D;51367;45.204;38.576;2023-02-15T13:05:51;2.11;80.65
64874;HTU21D;51367;45.204;38.576;2023-02-15T13:08:20;2.08;80.72
64874;HTU21D;51367;45.204;38.576;2023-02-15T13:10:59;2.02;80.65
64874;HTU21D;51367;45.204;38.576;2023-02-15T13:13:29;2.02;80.73
64874;HTU21D;51367;45.204;38.576;2023-02-15T13:16:04;2.00;80.80
64874;HTU21D;51367;45.204;38.576;2023-02-15T13:18:37;2.02;80.77
64874;HTU21D;51367;45.204;38.576;2023-02-15T13:23:32;2.06;80.80
64874;HTU21D;51367;45.204;38.576;2023-02-15T13:26:04;2.11;80.88
64874;HTU21D;51367;45.204;38.576;2023-02-15T13:28:44;2.20;80.81
64874;HTU21D;51367;45.204;38.576;2023-02-15T13:31:19;2.26;80.82
64874;HTU21D;51367;45.204;38.576;2023-02-15T13:33:51;2.31;80.89
64874;HTU21D;51367;45.204;38.576;2023-02-15T13:42:00;2.51;81.26
64874;HTU21D;51367;45.204;38.576;2023-02-15T13:45:05;2.46;81.31
64874;HTU21D;51367;45.204;38.576;2023-02-15T13:51:28;2.44;81.20
64874;HTU21D;51367;45.204;38.576;2023-02-15T14:01:41;2.51;80.85
64874;HTU21D;51367;45.204;38.576;2023-02-15T14:06:52;2.52;80.71
64874;HTU21D;51367;45.204;38.576;2023-02-15T14:20:14;2.45;80.60
64874;HTU21D;51367;45.204;38.576;2023-02-15T14:26:25;2.40;80.77
64874;HTU21D;51367;45.204;38.576;2023-02-15T14:31:43;2.34;80.67
64874;HTU21D;51367;45.204;38.576;2023-02-15T14:49:20;2.11;80.77
64874;HTU21D;51367;45.204;38.576;2023-02-15T15:02:26;1.83;80.90
64874;HTU21D;51367;45.204;38.576;2023-02-15T15:05:10;1.75;80.97
64874;HTU21D;51367;45.204;38.576;2023-02-15T15:08:19;1.65;81.05
64874;HTU21D;51367;45.204;38.576;2023-02-15T15:10:44;1.60;81.15
64874;HTU21D;51367;45.204;38.576;2023-02-15T15:19:02;1.40;81.17
64874;HTU21D;51367;45.204;38.576;2023-02-15T15:41:41;0.93;81.34
64874;HTU21D;51367;45.204;38.576;2023-02-15T15:50:15;0.81;81.30
64874;HTU21D;51367;45.204;38.576;2023-02-15T15:52:48;0.77;81.30
64874;HTU21D;51367;45.204;38.576;2023-02-15T15:55:19;0.73;81.30
64874;HTU21D;51367;45.204;38.576;2023-02-15T15:57:55;0.71;81.30
64874;HTU21D;51367;45.204;38.576;2023-02-15T16:00:41;0.67;81.28
64874;HTU21D;51367;45.204;38.576;2023-02-15T16:03:27;0.63;81.27
64874;HTU21D;51367;45.204;38.576;2023-02-15T16:05:54;0.58;81.24
64874;HTU21D;51367;45.204;38.576;2023-02-15T16:08:33;0.53;81.27
64874;HTU21D;51367;45.204;38.576;2023-02-15T16:11:13;0.50;81.28
64874;HTU21D;51367;45.204;38.576;2023-02-15T16:13:43;0.45;81.30
64874;HTU21D;51367;45.204;38.576;2023-02-15T16:16:12;0.42;81.33
64874;HTU21D;51367;45.204;38.576;2023-02-15T16:18:38;0.37;81.34
64874;HTU21D;51367;45.204;38.576;2023-02-15T16:21:17;0.34;81.37
64874;HTU21D;51367;45.204;38.576;2023-02-15T16:27:21;0.29;81.50
64874;HTU21D;51367;45.204;38.576;2023-02-15T16:29:44;0.31;81.55
64874;HTU21D;51367;45.204;38.576;2023-02-15T16:32:22;0.33;81.59
64874;HTU21D;51367;45.204;38.576;2023-02-15T16:34:59;0.38;81.62
64874;HTU21D;51367;45.204;38.576;2023-02-15T16:37:30;0.44;81.65
64874;HTU21D;51367;45.204;38.576;2023-02-15T16:39:57;0.49;81.63
64874;HTU21D;51367;45.204;38.576;2023-02-15T16:42:24;0.54;81.59
64874;HTU21D;51367;45.204;38.576;2023-02-15T16:45:00;0.58;81.53
64874;HTU21D;51367;45.204;38.576;2023-02-15T16:47:31;0.61;81.51
64874;HTU21D;51367;45.204;38.576;2023-02-15T16:50:02;0.63;81.46
64874;HTU21D;51367;45.204;38.576;2023-02-15T16:52:29;0.63;81.49
64874;HTU21D;51367;45.204;38.576;2023-02-15T16:54:58;0.65;81.52
64874;HTU21D;51367;45.204;38.576;2023-02-15T16:57:28;0.67;81.52
64874;HTU21D;51367;45.204;38.576;2023-02-15T17:00:07;0.69;81.50
64874;HTU21D;51367;45.204;38.576;2023-02-15T17:02:34;0.72;81.51
64874;HTU21D;51367;45.204;38.576;2023-02-15T17:05:02;0.72;81.51
64874;HTU21D;51367;45.204;38.576;2023-02-15T17:07:31;0.73;81.49
64874;HTU21D;51367;45.204;38.576;2023-02-15T17:09:59;0.72;81.51
64874;HTU21D;51367;45.204;38.576;2023-02-15T17:12:44;0.76;81.56
64874;HTU21D;51367;45.204;38.576;2023-02-15T17:15:32;0.73;81.85
64874;HTU21D;51367;45.204;38.576;2023-02-15T17:18:03;0.69;81.88
64874;HTU21D;51367;45.204;38.576;2023-02-15T17:20:30;0.67;81.88
64874;HTU21D;51367;45.204;38.576;2023-02-15T17:22:56;0.66;82.07
64874;HTU21D;51367;45.204;38.576;2023-02-15T17:25:37;0.65;82.17
64874;HTU21D;51367;45.204;38.576;2023-02-15T17:28:05;0.62;82.59
64874;HTU21D;51367;45.204;38.576;2023-02-15T17:30:34;0.58;82.63
64874;HTU21D;51367;45.204;38.576;2023-02-15T17:33:04;0.54;82.53
64874;HTU21D;51367;45.204;38.576;2023-02-15T17:35:43;0.48;82.57
64874;HTU21D;51367;45.204;38.576;2023-02-15T17:38:20;0.42;83.11
64874;HTU21D;51367;45.204;38.576;2023-02-15T17:40:46;0.33;82.93
64874;HTU21D;51367;45.204;38.576;2023-02-15T17:43:12;0.25;83.20
64874;HTU21D;51367;45.204;38.576;2023-02-15T17:45:44;0.18;83.97
64874;HTU21D;51367;45.204;38.576;2023-02-15T17:48:21;0.10;83.76
64874;HTU21D;51367;45.204;38.576;2023-02-15T17:50:47;0.03;83.62
64874;HTU21D;51367;45.204;38.576;2023-02-15T17:53:16;-0.03;83.70
64874;HTU21D;51367;45.204;38.576;2023-02-15T17:55:44;-0.08;83.31
64874;HTU21D;51367;45.204;38.576;2023-02-15T17:58:12;-0.12;83.18
64874;HTU21D;51367;45.204;38.576;2023-02-15T18:00:44;-0.17;83.26
64874;HTU21D;51367;45.204;38.576;2023-02-15T18:06:25;-0.28;83.10
64874;HTU21D;51367;45.204;38.576;2023-02-15T18:09:17;-0.32;83.09
64874;HTU21D;51367;45.204;38.576;2023-02-15T18:12:02;-0.37;83.07
64874;HTU21D;51367;45.204;38.576;2023-02-15T18:14:31;-0.40;83.01
64874;HTU21D;51367;45.204;38.576;2023-02-15T18:16:57;-0.42;83.00
64874;HTU21D;51367;45.204;38.576;2023-02-15T18:19:25;-0.46;83.00
64874;HTU21D;51367;45.204;38.576;2023-02-15T18:21:52;-0.51;83.00
64874;HTU21D;51367;45.204;38.576;2023-02-15T18:24:22;-0.53;83.02
64874;HTU21D;51367;45.204;38.576;2023-02-15T18:26:54;-0.54;83.03
64874;HTU21D;51367;45.204;38.576;2023-02-15T18:29:20;-0.55;83.03
64874;HTU21D;51367;45.204;38.576;2023-02-15T18:31:50;-0.54;83.04
64874;HTU21D;51367;45.204;38.576;2023-02-15T18:34:35;-0.53;83.00
64874;HTU21D;51367;45.204;38.576;2023-02-15T18:37:05;-0.54;82.98
64874;HTU21D;51367;45.204;38.576;2023-02-15T18:39:44;-0.53;82.94
64874;HTU21D;51367;45.204;38.576;2023-02-15T18:42:26;-0.55;82.87
64874;HTU21D;51367;45.204;38.576;2023-02-15T18:44:57;-0.58;82.81
64874;HTU21D;51367;45.204;38.576;2023-02-15T18:47:23;-0.62;82.79
64874;HTU21D;51367;45.204;38.576;2023-02-15T18:49:50;-0.66;82.79
64874;HTU21D;51367;45.204;38.576;2023-02-15T18:52:21;-0.67;82.81
64874;HTU21D;51367;45.204;38.576;2023-02-15T18:54:53;-0.70;82.82
64874;HTU21D;51367;45.204;38.576;2023-02-15T18:57:20;-0.71;82.84
64874;HTU21D;51367;45.204;38.576;2023-02-15T18:59:46;-0.75;82.78
64874;HTU21D;51367;45.204;38.576;2023-02-15T19:02:16;-0.80;82.81
64874;HTU21D;51367;45.204;38.576;2023-02-15T19:04:44;-0.82;82.86
64874;HTU21D;51367;45.204;38.576;2023-02-15T19:07:22;-0.81;82.89
64874;HTU21D;51367;45.204;38.576;2023-02-15T19:09:51;-0.81;82.91
64874;HTU21D;51367;45.204;38.576;2023-02-15T19:12:19;-0.80;82.91
64874;HTU21D;51367;45.204;38.576;2023-02-15T19:14:46;-0.80;82.91
64874;HTU21D;51367;45.204;38.576;2023-02-15T19:17:18;-0.80;82.91
64874;HTU21D;51367;45.204;38.576;2023-02-15T19:19:45;-0.79;82.89
64874;HTU21D;51367;45.204;38.576;2023-02-15T19:22:40;-0.79;82.87